weather.gov     
National Weather Service

Terminal Aerodrome Forecast
NWS Homepage
This page is being discontinued on March 12, 2014.
The same data is available at this site. Please update your bookmarks.
Thank you, and we apologize for the inconvenience.
Please send an email to SR-SRH.Webmaster@noaa.gov with any concerns.


Current Version
Previous Version:    01  02  03  04  05  06  07  08  09  10  11  12  13  14  15  16  17  18  19  20  21  22  23  24  25  
[Printable]
757
FTUS43 KICT 301700
TAFHUT
TAF
KHUT 301734Z 3018/3118 05007KT 5SM -RA BR SCT008 OVC035
      TEMPO 3018/3021 SCT008 BKN015 OVC035
     FM302100 07007KT P6SM SCT015 OVC050
     FM310100 VRB05KT P6SM SCT020 BKN050
     FM310600 VRB03KT 4SM BR SCT100=


U.S. Dept. of Commerce
NOAA National Weather Service
1325 East West Highway
Silver Spring, MD 20910
E-mail: w-nws.webmaster@noaa.gov
Page last modified: May 16, 2007
NATIONAL WEATHER SERVICE: for Safety, for Work, for Fun - FOR LIFE